createdAt,value
2017-12-04T00:01:02.515Z,7.78
2017-12-04T00:03:29.190Z,7.22
2017-12-04T00:05:55.771Z,8.20
2017-12-04T00:08:22.349Z,6.68
2017-12-04T00:10:48.969Z,5.90
2017-12-04T00:13:15.534Z,6.78
2017-12-04T00:15:42.133Z,7.20
2017-12-04T00:18:08.742Z,7.62
2017-12-04T00:20:35.337Z,6.20
2017-12-04T00:23:02.266Z,7.30
2017-12-04T00:25:28.902Z,6.40
2017-12-04T00:27:55.442Z,6.68
2017-12-04T00:30:22.034Z,6.40
2017-12-04T00:32:48.978Z,6.35
2017-12-04T00:35:15.506Z,6.55
2017-12-04T00:37:42.060Z,5.90
2017-12-04T00:40:08.674Z,6.57
2017-12-04T00:42:35.220Z,6.25
2017-12-04T00:45:01.752Z,5.95
2017-12-04T00:47:28.426Z,6.03
2017-12-04T00:49:55.005Z,6.35
2017-12-04T00:52:21.541Z,6.72
2017-12-04T00:54:48.127Z,6.25
2017-12-04T00:57:15.051Z,7.25
2017-12-04T00:59:41.593Z,7.53
2017-12-04T01:02:08.231Z,7.20
2017-12-04T01:04:34.827Z,6.93
2017-12-04T01:07:01.751Z,6.53
2017-12-04T01:09:28.350Z,5.40
2017-12-04T01:11:54.902Z,6.22
2017-12-04T01:14:21.454Z,7.20
2017-12-04T01:16:48.053Z,6.75
2017-12-04T01:19:14.593Z,6.50
2017-12-04T01:21:41.201Z,6.40
2017-12-04T01:24:07.807Z,6.18
2017-12-04T01:26:34.729Z,6.30
2017-12-04T01:29:01.279Z,5.50
2017-12-04T01:31:27.894Z,5.40
2017-12-04T01:33:54.445Z,6.00
2017-12-04T01:36:20.989Z,5.32
2017-12-04T01:38:47.667Z,6.00
2017-12-04T01:41:14.581Z,6.28
2017-12-04T01:43:41.134Z,6.50
2017-12-04T01:46:07.757Z,5.78
2017-12-04T01:48:34.713Z,6.57
2017-12-04T01:51:01.669Z,6.07
2017-12-04T01:53:28.654Z,7.25
2017-12-04T01:55:55.205Z,7.07
2017-12-04T01:58:21.757Z,6.22
2017-12-04T02:00:48.526Z,10.27
2017-12-04T02:03:15.122Z,6.62
2017-12-04T02:05:42.070Z,7.85
2017-12-04T02:08:08.674Z,7.45
2017-12-04T02:10:35.259Z,7.65
2017-12-04T02:13:01.803Z,6.87
2017-12-04T02:15:28.386Z,8.20
2017-12-04T02:17:55.353Z,8.60
2017-12-04T02:20:21.958Z,8.13
2017-12-04T02:22:48.639Z,10.57
2017-12-04T02:25:15.223Z,7.80
2017-12-04T02:27:41.841Z,12.48
2017-12-04T02:30:08.591Z,8.60
2017-12-04T02:32:35.219Z,9.73
2017-12-04T02:37:35.383Z,8.55
2017-12-04T02:40:02.351Z,8.32
2017-12-04T02:42:29.340Z,8.43
2017-12-04T02:44:56.114Z,8.23
2017-12-04T02:47:22.768Z,9.38
2017-12-04T02:49:49.376Z,11.07
2017-12-04T02:52:16.186Z,9.02
2017-12-04T02:54:42.777Z,8.45
2017-12-04T02:57:09.393Z,7.65
2017-12-04T02:59:36.494Z,7.93
2017-12-04T03:02:03.149Z,8.35
2017-12-04T03:04:29.726Z,7.93
2017-12-04T03:06:56.322Z,8.18
2017-12-04T03:09:22.857Z,8.35
2017-12-04T03:11:49.769Z,8.80
2017-12-04T03:14:16.373Z,8.82
2017-12-04T03:16:42.993Z,9.80
2017-12-04T03:19:09.602Z,10.50
2017-12-04T03:21:36.274Z,9.55
2017-12-04T03:24:02.901Z,9.25
2017-12-04T03:26:29.529Z,9.60
2017-12-04T03:28:56.210Z,10.02
2017-12-04T03:31:22.767Z,8.95
2017-12-04T03:33:49.338Z,13.95
2017-12-04T03:36:15.977Z,10.13
2017-12-04T03:38:42.606Z,10.80
2017-12-04T03:41:09.250Z,12.68
2017-12-04T03:43:35.909Z,12.40
2017-12-04T03:46:02.525Z,10.73
2017-12-04T03:48:29.078Z,11.93
2017-12-04T03:50:55.673Z,13.02
2017-12-04T03:53:22.227Z,12.18
2017-12-04T03:55:49.141Z,10.60
2017-12-04T03:58:15.743Z,14.73
2017-12-04T04:00:42.681Z,9.88
2017-12-04T04:03:09.238Z,11.10
2017-12-04T04:05:36.289Z,10.52
2017-12-04T04:08:02.850Z,10.18
2017-12-04T04:10:29.803Z,9.73
2017-12-04T04:12:56.777Z,10.95
2017-12-04T04:15:23.338Z,9.88
2017-12-04T04:17:49.878Z,12.57
2017-12-04T04:20:16.559Z,11.68
2017-12-04T04:22:43.125Z,12.15
2017-12-04T04:25:09.718Z,9.95
2017-12-04T04:27:36.314Z,11.15
2017-12-04T04:30:02.893Z,34.33
2017-12-04T04:32:29.798Z,11.98
2017-12-04T04:34:56.398Z,10.82
2017-12-04T04:37:23.305Z,10.07
2017-12-04T04:39:49.841Z,12.43
2017-12-04T04:42:16.491Z,15.13
2017-12-04T04:44:43.054Z,14.30
2017-12-04T04:47:09.645Z,11.27
2017-12-04T04:49:36.710Z,15.60
2017-12-04T04:52:03.730Z,14.07
2017-12-04T04:54:30.393Z,13.62
2017-12-04T04:56:57.047Z,12.00
2017-12-04T04:59:23.654Z,11.18
2017-12-04T05:01:50.250Z,10.88
2017-12-04T05:04:17.316Z,15.25
2017-12-04T05:06:44.298Z,13.77
2017-12-04T05:09:10.881Z,13.82
2017-12-04T05:11:37.482Z,13.00
2017-12-04T05:14:04.466Z,9.85
2017-12-04T05:16:31.061Z,15.65
2017-12-04T05:18:57.720Z,14.63
2017-12-04T05:21:31.189Z,12.65
2017-12-04T05:23:57.781Z,12.98
2017-12-04T05:26:24.789Z,14.38
2017-12-04T05:28:51.393Z,10.65
2017-12-04T05:31:18.368Z,12.80
2017-12-04T05:33:44.920Z,12.60
2017-12-04T05:36:11.505Z,11.65
2017-12-04T05:38:38.244Z,10.07
2017-12-04T05:41:04.814Z,11.75
2017-12-04T05:43:31.356Z,13.82
2017-12-04T05:45:57.993Z,14.02
2017-12-04T05:48:24.598Z,12.88
2017-12-04T05:50:51.142Z,14.27
2017-12-04T05:53:17.754Z,12.45
2017-12-04T05:55:44.306Z,12.95
2017-12-04T05:58:10.898Z,14.57
2017-12-04T06:00:37.522Z,13.23
2017-12-04T06:03:04.425Z,13.80
2017-12-04T06:05:31.023Z,15.98
2017-12-04T06:07:57.643Z,13.90
2017-12-04T06:10:24.190Z,13.75
2017-12-04T06:12:50.730Z,16.23
2017-12-04T06:15:17.348Z,13.50
2017-12-04T06:17:43.929Z,25.83
2017-12-04T06:20:10.465Z,14.45
2017-12-04T06:22:37.109Z,11.15
2017-12-04T06:25:03.651Z,11.15
2017-12-04T06:27:30.198Z,13.82
2017-12-04T06:29:56.795Z,13.60
2017-12-04T06:32:23.339Z,12.52
2017-12-04T06:34:49.889Z,17.10
2017-12-04T06:37:16.482Z,16.05
2017-12-04T06:39:43.021Z,12.00
2017-12-04T06:42:09.646Z,12.85
2017-12-04T06:44:36.746Z,15.20
2017-12-04T06:47:03.326Z,17.15
2017-12-04T06:49:29.917Z,16.62
2017-12-04T06:51:56.565Z,13.13
2017-12-04T06:54:23.161Z,13.60
2017-12-04T06:56:49.723Z,18.17
2017-12-04T06:59:16.330Z,13.13
2017-12-04T07:01:42.858Z,14.95
2017-12-04T07:04:09.462Z,14.10
2017-12-04T07:06:36.091Z,14.85
2017-12-04T07:09:02.813Z,14.15
2017-12-04T07:11:29.357Z,13.43
2017-12-04T07:13:55.945Z,11.93
2017-12-04T07:16:22.501Z,13.15
2017-12-04T07:18:49.035Z,12.57
2017-12-04T07:21:15.666Z,15.55
2017-12-04T07:23:42.201Z,13.55
2017-12-04T07:26:08.758Z,14.30
2017-12-04T07:28:35.349Z,12.77
2017-12-04T07:31:01.899Z,13.10
2017-12-04T07:33:28.618Z,13.73
2017-12-04T07:35:55.253Z,12.43
2017-12-04T07:38:21.806Z,13.48
2017-12-04T07:40:48.430Z,10.00
2017-12-04T07:43:15.086Z,11.63
2017-12-04T07:45:41.614Z,9.70
2017-12-04T07:48:08.523Z,10.52
2017-12-04T07:50:35.121Z,14.70
2017-12-04T07:53:02.050Z,12.85
2017-12-04T07:55:28.991Z,10.88
2017-12-04T07:57:55.577Z,10.13
2017-12-04T08:00:22.514Z,12.82
2017-12-04T08:02:49.190Z,8.52
2017-12-04T08:05:15.959Z,10.65
2017-12-04T08:07:42.618Z,10.18
2017-12-04T08:10:09.641Z,11.10
2017-12-04T08:12:36.666Z,9.88
2017-12-04T08:15:03.289Z,13.48
2017-12-04T08:17:29.834Z,10.32
2017-12-04T08:19:56.500Z,11.43
2017-12-04T08:22:23.124Z,10.27
2017-12-04T08:24:49.719Z,9.95
2017-12-04T08:27:16.357Z,12.00
2017-12-04T08:29:42.942Z,12.68
2017-12-04T08:32:09.870Z,9.90
2017-12-04T08:34:36.509Z,9.85
2017-12-04T08:37:03.053Z,10.80
2017-12-04T08:39:29.655Z,9.85
2017-12-04T08:41:56.322Z,11.35
2017-12-04T08:44:22.914Z,11.23
2017-12-04T08:46:49.444Z,10.10
2017-12-04T08:49:16.034Z,9.82
2017-12-04T08:51:42.957Z,8.73
2017-12-04T08:54:09.498Z,9.77
2017-12-04T08:56:36.104Z,10.60
2017-12-04T08:59:02.642Z,7.97
2017-12-04T09:01:29.214Z,9.07
2017-12-04T09:03:55.818Z,8.95
2017-12-04T09:06:22.797Z,8.68
2017-12-04T09:08:49.385Z,10.07
2017-12-04T09:11:15.993Z,11.20
2017-12-04T09:13:42.550Z,12.68
2017-12-04T09:16:09.085Z,7.65
2017-12-04T09:18:35.748Z,8.48
2017-12-04T09:21:02.374Z,9.85
2017-12-04T09:23:28.990Z,8.90
2017-12-04T09:25:55.638Z,7.85
2017-12-04T09:28:22.207Z,7.85
2017-12-04T09:30:49.181Z,8.93
2017-12-04T09:33:15.900Z,8.75
2017-12-04T09:35:42.845Z,7.18
2017-12-04T09:38:09.434Z,8.65
2017-12-04T09:40:36.085Z,6.60
2017-12-04T09:43:02.662Z,6.93
2017-12-04T09:45:29.242Z,8.15
2017-12-04T09:47:55.858Z,6.55
2017-12-04T09:50:22.467Z,6.97
2017-12-04T09:52:49.409Z,6.78
2017-12-04T09:55:16.959Z,6.95
2017-12-04T09:57:43.575Z,6.65
2017-12-04T10:00:10.189Z,6.57
2017-12-04T10:02:37.197Z,8.38
2017-12-04T10:05:03.819Z,7.07
2017-12-04T10:07:30.438Z,8.13
2017-12-04T10:09:57.114Z,8.35
2017-12-04T10:12:23.690Z,6.25
2017-12-04T10:14:50.330Z,6.12
2017-12-04T10:17:16.973Z,6.47
2017-12-04T10:19:43.526Z,7.50
2017-12-04T10:22:10.071Z,6.00
2017-12-04T10:24:36.682Z,7.53
2017-12-04T10:27:03.646Z,7.68
2017-12-04T10:29:30.565Z,7.87
2017-12-04T10:31:57.186Z,8.32
2017-12-04T10:34:23.751Z,8.90
2017-12-04T10:36:50.314Z,8.70
2017-12-04T10:39:16.910Z,10.65
2017-12-04T10:41:43.458Z,8.95
2017-12-04T10:44:10.040Z,6.70
2017-12-04T10:46:36.685Z,6.90
2017-12-04T10:49:03.254Z,7.10
2017-12-04T10:51:29.826Z,7.32
2017-12-04T10:53:56.885Z,8.55
2017-12-04T10:56:23.866Z,7.53
2017-12-04T10:58:50.489Z,8.63
2017-12-04T11:01:17.586Z,6.97
2017-12-04T11:03:44.155Z,8.15
2017-12-04T11:06:10.747Z,7.50
2017-12-04T11:08:37.766Z,7.78
2017-12-04T11:11:04.360Z,8.40
2017-12-04T11:13:31.281Z,8.10
2017-12-04T11:15:57.933Z,8.75
2017-12-04T11:18:24.526Z,7.35
2017-12-04T11:20:51.141Z,6.95
2017-12-04T11:23:17.834Z,7.62
2017-12-04T11:25:44.465Z,8.25
2017-12-04T11:28:11.031Z,7.70
2017-12-04T11:30:37.762Z,6.57
2017-12-04T11:33:04.754Z,7.75
2017-12-04T11:35:31.366Z,7.05
2017-12-04T11:38:05.026Z,10.90
2017-12-04T11:40:31.638Z,17.33
2017-12-04T11:42:58.232Z,11.98
2017-12-04T11:45:25.327Z,10.40
2017-12-04T11:47:52.318Z,11.68
2017-12-04T11:50:18.929Z,9.05
2017-12-04T11:52:45.966Z,7.87
2017-12-04T11:55:12.640Z,7.87
2017-12-04T11:57:39.376Z,9.77
2017-12-04T12:00:06.397Z,7.32
2017-12-04T12:02:33.110Z,8.38
2017-12-04T12:04:59.741Z,8.30
2017-12-04T12:07:26.420Z,7.57
2017-12-04T12:09:53.014Z,8.13
2017-12-04T12:12:19.625Z,7.78
2017-12-04T12:14:46.243Z,7.93
2017-12-04T12:17:13.215Z,7.07
2017-12-04T12:19:39.804Z,5.28
2017-12-04T12:22:06.397Z,7.10
2017-12-04T12:24:33.322Z,7.20
2017-12-04T12:26:59.882Z,5.75
2017-12-04T12:29:26.878Z,7.18
2017-12-04T12:31:53.417Z,4.60
2017-12-04T12:34:19.948Z,5.80
2017-12-04T12:36:46.938Z,6.70
2017-12-04T12:39:13.478Z,6.12
2017-12-04T12:41:40.021Z,6.07
2017-12-04T12:44:06.621Z,5.72
2017-12-04T12:46:33.208Z,5.70
2017-12-04T12:49:00.134Z,5.10
2017-12-04T12:51:26.775Z,6.28
2017-12-04T12:53:53.366Z,6.60
2017-12-04T12:56:19.905Z,5.68
2017-12-04T12:58:46.523Z,5.68
2017-12-04T13:01:13.073Z,6.12
2017-12-04T13:03:39.615Z,6.62
2017-12-04T13:06:06.237Z,6.47
2017-12-04T13:08:32.786Z,6.43
2017-12-04T13:10:59.402Z,6.90
2017-12-04T13:13:26.366Z,5.75
2017-12-04T13:15:52.907Z,10.27
2017-12-04T13:18:21.326Z,7.85
2017-12-04T13:20:47.921Z,9.88
2017-12-04T13:23:14.825Z,7.32
2017-12-04T13:25:41.430Z,6.70
2017-12-04T13:28:08.566Z,13.70
2017-12-04T13:30:35.121Z,16.20
2017-12-04T13:33:14.008Z,9.23
2017-12-04T13:35:52.622Z,7.78
2017-12-04T13:38:19.237Z,8.98
2017-12-04T13:40:45.779Z,6.93
2017-12-04T13:43:12.338Z,8.02
2017-12-04T13:45:39.008Z,8.98
2017-12-04T13:48:06.493Z,9.20
2017-12-04T13:50:33.086Z,6.65
2017-12-04T13:52:59.746Z,6.20
2017-12-04T13:55:26.338Z,7.40
2017-12-04T13:57:52.938Z,7.10
2017-12-04T14:00:19.612Z,8.50
2017-12-04T14:02:46.590Z,7.85
2017-12-04T14:05:13.190Z,8.40
2017-12-04T14:07:39.925Z,8.90
2017-12-04T14:10:06.472Z,8.40
2017-12-04T14:12:33.050Z,7.65
2017-12-04T14:14:59.655Z,7.62
2017-12-04T14:17:26.258Z,8.70
2017-12-04T14:19:52.846Z,7.85
2017-12-04T14:22:19.535Z,9.30
2017-12-04T14:24:46.098Z,6.95
2017-12-04T14:27:12.642Z,7.47
2017-12-04T14:29:39.241Z,6.85
2017-12-04T14:32:05.869Z,8.10
2017-12-04T14:34:32.421Z,9.70
2017-12-04T14:36:59.015Z,15.60
2017-12-04T14:39:25.682Z,9.88
2017-12-04T14:41:52.235Z,15.05
2017-12-04T14:44:19.223Z,13.90
2017-12-04T14:46:45.818Z,11.10
2017-12-04T14:49:12.486Z,9.18
2017-12-04T14:51:39.228Z,10.00
2017-12-04T14:54:05.850Z,10.05
2017-12-04T14:56:34.752Z,12.13
2017-12-04T14:59:01.438Z,9.88
2017-12-04T15:01:28.206Z,12.27
2017-12-04T15:03:55.181Z,9.57
2017-12-04T15:06:21.866Z,10.30
2017-12-04T15:08:48.453Z,11.32
2017-12-04T15:11:15.514Z,10.60
2017-12-04T15:13:42.690Z,10.02
2017-12-04T15:16:09.701Z,11.98
2017-12-04T15:18:36.326Z,11.95
2017-12-04T15:21:02.990Z,11.57
2017-12-04T15:23:29.638Z,12.15
2017-12-04T15:25:56.258Z,11.90
2017-12-04T15:28:23.074Z,11.98
2017-12-04T15:30:49.685Z,11.25
2017-12-04T15:33:16.298Z,9.10
2017-12-04T15:35:42.950Z,10.90
2017-12-04T15:38:09.577Z,10.40
2017-12-04T15:40:36.191Z,11.18
2017-12-04T15:43:02.841Z,10.43
2017-12-04T15:45:29.475Z,12.27
2017-12-04T15:47:56.076Z,9.88
2017-12-04T15:50:22.827Z,11.55
2017-12-04T15:52:49.781Z,13.90
2017-12-04T15:55:16.390Z,12.23
2017-12-04T15:57:43.097Z,12.00
2017-12-04T16:00:10.072Z,10.02
2017-12-04T16:02:36.690Z,11.93
2017-12-04T16:05:03.739Z,12.50
2017-12-04T16:07:30.318Z,11.80
2017-12-04T16:09:56.902Z,11.85
2017-12-04T16:12:23.533Z,10.45
2017-12-04T16:14:50.106Z,12.18
2017-12-04T16:17:16.697Z,11.77
2017-12-04T16:19:43.746Z,10.25
2017-12-04T16:22:10.658Z,13.88
2017-12-04T16:24:37.237Z,10.57
2017-12-04T16:27:03.891Z,10.48
2017-12-04T16:29:30.490Z,11.93
2017-12-04T16:31:57.250Z,10.70
2017-12-04T16:34:23.958Z,12.63
2017-12-04T16:36:50.909Z,11.70
2017-12-04T16:39:17.838Z,11.88
2017-12-04T16:41:44.529Z,10.18
2017-12-04T16:44:11.121Z,12.05
2017-12-04T16:46:37.674Z,14.40
2017-12-04T16:49:04.370Z,11.55
2017-12-04T16:51:31.326Z,14.60
2017-12-04T16:53:58.250Z,10.95
2017-12-04T16:56:24.902Z,10.60
2017-12-04T16:58:51.485Z,12.10
2017-12-04T17:01:18.158Z,10.93
2017-12-04T17:03:44.814Z,12.37
2017-12-04T17:06:11.422Z,12.40
2017-12-04T17:08:38.410Z,9.88
2017-12-04T17:11:05.041Z,11.60
2017-12-04T17:13:32.293Z,11.00
2017-12-04T17:16:00.194Z,9.70
2017-12-04T17:18:26.802Z,12.93
2017-12-04T17:20:53.386Z,12.13
2017-12-04T17:23:19.958Z,13.55
2017-12-04T17:25:46.606Z,17.05
2017-12-04T17:28:13.201Z,10.10
2017-12-04T17:30:39.867Z,12.35
2017-12-04T17:33:06.567Z,13.07
2017-12-04T17:35:33.185Z,13.27
2017-12-04T17:37:59.802Z,11.55
2017-12-04T17:40:26.814Z,9.90
2017-12-04T17:42:53.463Z,10.90
2017-12-04T17:45:20.026Z,11.82
2017-12-04T17:47:46.776Z,9.25
2017-12-04T17:50:13.374Z,11.18
2017-12-04T17:52:39.994Z,7.70
2017-12-04T17:55:06.633Z,10.88
2017-12-04T17:57:33.211Z,10.07
2017-12-04T18:00:00.162Z,9.80
2017-12-04T18:02:27.323Z,12.63
2017-12-04T18:04:54.314Z,11.27
2017-12-04T18:07:20.990Z,9.23
2017-12-04T18:09:47.671Z,11.73
2017-12-04T18:12:14.359Z,10.85
2017-12-04T18:14:40.966Z,9.77
2017-12-04T18:17:07.617Z,10.68
2017-12-04T18:19:34.254Z,11.38
2017-12-04T18:22:00.894Z,10.25
2017-12-04T18:24:27.595Z,12.52
2017-12-04T18:26:54.207Z,9.80
2017-12-04T18:29:20.831Z,11.15
2017-12-04T18:31:47.675Z,13.23
2017-12-04T18:34:14.405Z,11.15
2017-12-04T18:36:41.017Z,9.82
2017-12-04T18:39:07.724Z,15.48
2017-12-04T18:41:34.346Z,10.68
2017-12-04T18:44:00.958Z,10.90
2017-12-04T18:46:27.642Z,11.40
2017-12-04T18:48:54.645Z,10.80
2017-12-04T18:51:21.277Z,13.62
2017-12-04T18:53:47.950Z,9.73
2017-12-04T18:56:14.586Z,13.27
2017-12-04T18:58:41.190Z,10.90
2017-12-04T19:01:08.282Z,19.65
2017-12-04T19:03:34.913Z,9.75
2017-12-04T19:06:01.530Z,12.02
2017-12-04T19:08:28.222Z,11.35
2017-12-04T19:10:54.846Z,14.60
2017-12-04T19:13:21.874Z,12.23
2017-12-04T19:15:48.567Z,14.73
2017-12-04T19:18:15.190Z,12.32
2017-12-04T19:20:41.841Z,13.73
2017-12-04T19:23:08.881Z,17.65
2017-12-04T19:25:35.483Z,13.45
2017-12-04T19:28:02.099Z,12.77
2017-12-04T19:30:29.154Z,14.13
2017-12-04T19:32:55.766Z,12.70
2017-12-04T19:35:22.401Z,12.70
2017-12-04T19:37:49.179Z,12.35
2017-12-04T19:40:16.639Z,11.70
2017-12-04T19:42:44.255Z,10.57
2017-12-04T19:45:11.310Z,14.25
2017-12-04T19:47:38.321Z,12.93
2017-12-04T19:50:04.969Z,10.85
2017-12-04T19:52:31.670Z,11.18
2017-12-04T19:54:58.671Z,14.15
2017-12-04T19:57:25.305Z,12.68
2017-12-04T19:59:52.041Z,12.13
2017-12-04T20:02:18.685Z,11.73
2017-12-04T20:04:45.866Z,12.68
2017-12-04T20:07:14.254Z,10.60
2017-12-04T20:09:40.951Z,12.23
2017-12-04T20:12:07.787Z,12.60
2017-12-04T20:14:35.449Z,11.38
2017-12-04T20:17:02.137Z,13.48
2017-12-04T20:19:28.766Z,12.13
2017-12-04T20:21:55.862Z,13.40
2017-12-04T20:24:23.989Z,13.85
2017-12-04T20:26:51.289Z,11.93
2017-12-04T20:29:18.363Z,14.87
2017-12-04T20:31:45.667Z,13.88
2017-12-04T20:34:12.531Z,14.75
2017-12-04T20:36:39.546Z,15.25
2017-12-04T20:39:06.839Z,16.73
2017-12-04T20:41:33.736Z,18.98
2017-12-04T20:44:00.705Z,15.35
2017-12-04T20:46:28.544Z,18.42
2017-12-04T20:48:55.417Z,17.35
2017-12-04T20:51:22.391Z,17.23
2017-12-04T20:53:49.314Z,18.85
2017-12-04T20:56:16.182Z,16.62
2017-12-04T20:58:43.209Z,21.87
2017-12-04T21:01:10.094Z,17.20
2017-12-04T21:03:37.030Z,17.48
2017-12-04T21:06:04.101Z,20.90
2017-12-04T21:08:43.062Z,20.00
2017-12-04T21:11:22.113Z,18.37
2017-12-04T21:14:00.900Z,23.35
2017-12-04T21:16:50.307Z,19.73
2017-12-04T21:19:18.106Z,15.77
2017-12-04T21:21:45.013Z,18.15
2017-12-04T21:24:11.996Z,17.87
2017-12-04T21:26:38.935Z,16.20
2017-12-04T21:29:05.828Z,17.67
2017-12-04T21:31:32.735Z,14.82
2017-12-04T21:33:59.662Z,17.25
2017-12-04T21:36:26.868Z,15.35
2017-12-04T21:38:53.834Z,15.77
2017-12-04T21:41:20.712Z,11.30
2017-12-04T21:43:47.606Z,13.77
2017-12-04T21:46:14.523Z,13.43
2017-12-04T21:48:41.510Z,11.12
2017-12-04T21:51:08.861Z,14.25
2017-12-04T21:53:35.882Z,19.00
2017-12-04T21:56:02.743Z,17.00
2017-12-04T21:58:29.615Z,15.05
2017-12-04T22:00:56.538Z,17.08
2017-12-04T22:03:23.422Z,19.45
2017-12-04T22:05:50.333Z,17.42
2017-12-04T22:08:17.273Z,18.30
2017-12-04T22:10:44.199Z,20.25
2017-12-04T22:13:11.157Z,21.55
2017-12-04T22:15:38.493Z,19.95
2017-12-04T22:18:05.478Z,18.45
2017-12-04T22:20:32.748Z,22.05
2017-12-04T22:22:59.711Z,21.33
2017-12-04T22:25:26.979Z,16.73
2017-12-04T22:27:54.263Z,21.95
2017-12-04T22:30:21.264Z,25.20
2017-12-04T22:32:48.158Z,18.20
2017-12-04T22:35:15.446Z,21.27
2017-12-04T22:37:42.417Z,19.20
2017-12-04T22:40:09.313Z,17.67
2017-12-04T22:42:36.192Z,19.90
2017-12-04T22:45:03.630Z,20.88
2017-12-04T22:47:31.963Z,19.50
2017-12-04T22:49:59.018Z,16.55
2017-12-04T22:52:26.704Z,19.40
2017-12-04T22:54:54.355Z,18.37
2017-12-04T22:57:22.432Z,16.98
2017-12-04T22:59:50.187Z,18.60
2017-12-04T23:02:17.150Z,20.02
2017-12-04T23:04:44.028Z,18.95
2017-12-04T23:07:11.130Z,20.25
2017-12-04T23:09:37.738Z,17.10
2017-12-04T23:12:04.370Z,18.15
2017-12-04T23:14:31.426Z,19.67
2017-12-04T23:16:58.347Z,18.55
2017-12-04T23:19:24.970Z,18.90
2017-12-04T23:21:51.690Z,20.77
2017-12-04T23:24:18.722Z,22.45
2017-12-04T23:26:45.369Z,19.00
2017-12-04T23:29:12.005Z,20.90
2017-12-04T23:31:38.666Z,15.90
2017-12-04T23:34:05.333Z,15.80
2017-12-04T23:36:32.061Z,17.65
2017-12-04T23:38:58.637Z,16.25
2017-12-04T23:41:25.212Z,13.75
2017-12-04T23:43:51.846Z,19.40
2017-12-04T23:46:18.758Z,17.83
2017-12-04T23:48:45.322Z,17.40
2017-12-04T23:51:11.979Z,15.07
2017-12-04T23:53:38.529Z,16.70
2017-12-04T23:56:05.094Z,19.65
2017-12-04T23:58:32.090Z,20.10
